This is the latest recevied weather packets stored in our database for station/object TA3HRJ-12. If no packets are shown the sender has not sent any weather packets the latest 10 day(s).
| Time | Temp. | Humidity | Pressure | Rain* | Wind** | Luminosity | Snow |
|---|---|---|---|---|---|---|---|
| 1788711202 | 27.78° C | 19% | 1031 hPa | - | - | - | - |
| 1788710302 | 29.44° C | 18% | 1030.7 hPa | - | - | - | - |
| 1788708501 | 30° C | 17% | 1030.4 hPa | - | - | - | - |
| 1788707601 | 30.56° C | 17% | 1030.2 hPa | - | - | - | - |
| 1788704901 | 48.33° C | 4% | 1030 hPa | - | - | - | - |
| 1788704001 | 47.78° C | 4% | 1030.1 hPa | - | - | - | - |
| 1788702201 | 51.11° C | 3% | 1030.1 hPa | - | - | - | - |
| 1788697700 | 34.44° C | 13% | 1030.5 hPa | - | - | - | - |
| 1788696800 | 37.22° C | 10% | 1030.6 hPa | - | - | - | - |
| 1788694100 | 33.89° C | 12% | 1031 hPa | - | - | - | - |
| 1788693200 | 32.22° C | 14% | 1031.1 hPa | - | - | - | - |
| 1788690499 | 31.11° C | 16% | 1031.1 hPa | - | - | - | - |
| 1788689599 | 30° C | 16% | 1031.3 hPa | - | - | - | - |
| 1788686899 | 30.56° C | 18% | 1031.4 hPa | - | - | - | - |
| 1788685999 | 29.44° C | 19% | 1031.4 hPa | - | - | - | - |
| 1788685099 | 31.11° C | 17% | 1031.4 hPa | - | - | - | - |
| 1788684199 | 29.44° C | 18% | 1031.5 hPa | - | - | - | - |
| 1788683298 | 28.89° C | 20% | 1031.6 hPa | - | - | - | - |
| 1788679698 | 27.78° C | 23% | 1031.8 hPa | - | - | - | - |
| 1788678798 | 26.67° C | 25% | 1031.6 hPa | - | - | - | - |
| 1788677898 | 26.67° C | 25% | 1031.6 hPa | - | - | - | - |
| 1788676998 | 26.67° C | 25% | 1031.6 hPa | - | - | - | - |
| 1788676098 | 27.22° C | 23% | 1031.5 hPa | - | - | - | - |
| 1788675197 | 27.78° C | 23% | 1031.3 hPa | - | - | - | - |
| 1788672497 | 26.11° C | 25% | 1031.5 hPa | - | - | - | - |
* Rain since midnight (hover to see other rain measurements)
** Current wind speed in m/s (hover to see current wind gust speed)